Netarts Bay, Oregon
Current Conditions -  °F | °C
As of 3:15 PM on Saturday 25 Oct 2014 (Local Time) from KTMK Reporting Station
Light Rain Light Rain  
Wind Chill: 59°   Ceiling: 2400
Heat Index: 59°   Visibility: 7mi
Dew Point: 55°   Wind: 17mph
Humidity: 88%   Direction: 160°SSE
Pressure: 29.36"   Gusts: 25mph
Location:  45.435°N, 123.944°W
Report Text: KTMK 252215Z AUTO 16015G22KT 7SM -RA SCT018 BKN024 OVC049 15/13 A2936 RMK AO2 P0002
Loading
Personal Weather Stations






























Interactive Weather Map
Tropical Storm Tracking
New forecast layout! Learn more

10-Day Weather Forecast

Advertisements
Track Severe Weather on mobile